createdAt,value
2018-03-08T00:01:47.118Z,2.10
2018-03-08T00:02:49.698Z,2.10
2018-03-08T00:03:52.538Z,2.10
2018-03-08T00:04:55.035Z,2.10
2018-03-08T00:05:58.269Z,2.10
2018-03-08T00:07:02.156Z,2.00
2018-03-08T00:08:04.679Z,2.10
2018-03-08T00:09:07.899Z,2.10
2018-03-08T00:10:10.384Z,2.10
2018-03-08T00:11:12.849Z,2.10
2018-03-08T00:12:16.346Z,2.10
2018-03-08T00:13:18.916Z,2.10
2018-03-08T00:14:21.961Z,2.10
2018-03-08T00:15:24.624Z,2.10
2018-03-08T00:16:27.630Z,2.10
2018-03-08T00:17:30.106Z,2.10
2018-03-08T00:18:32.630Z,2.10
2018-03-08T00:19:35.094Z,2.10
2018-03-08T00:20:39.096Z,2.10
2018-03-08T00:21:42.622Z,2.10
2018-03-08T00:22:46.136Z,2.10
2018-03-08T00:23:49.348Z,2.10
2018-03-08T00:24:51.805Z,2.10
2018-03-08T00:25:54.305Z,2.10
2018-03-08T00:26:57.627Z,2.10
2018-03-08T00:28:01.087Z,2.10
2018-03-08T00:29:03.542Z,2.10
2018-03-08T00:30:06.042Z,2.10
2018-03-08T00:31:08.601Z,2.10
2018-03-08T00:32:11.061Z,2.10
2018-03-08T00:33:14.299Z,2.10
2018-03-08T00:34:17.706Z,2.10
2018-03-08T00:35:20.214Z,2.00
2018-03-08T00:36:23.685Z,2.10
2018-03-08T00:37:26.160Z,2.10
2018-03-08T00:38:28.650Z,2.10
2018-03-08T00:39:31.824Z,2.10
2018-03-08T00:40:34.338Z,2.20
2018-03-08T00:41:37.586Z,2.20
2018-03-08T00:42:40.838Z,2.20
2018-03-08T00:43:43.461Z,2.20
2018-03-08T00:44:45.912Z,2.20
2018-03-08T00:45:48.776Z,2.20
2018-03-08T00:46:52.327Z,2.20
2018-03-08T00:47:56.364Z,2.20
2018-03-08T00:48:59.888Z,2.20
2018-03-08T00:50:03.357Z,2.20
2018-03-08T00:51:08.157Z,2.10
2018-03-08T00:52:12.007Z,2.10
2018-03-08T00:53:14.490Z,2.10
2018-03-08T00:54:17.062Z,2.10
2018-03-08T00:55:19.556Z,2.10
2018-03-08T00:56:22.071Z,2.10
2018-03-08T00:57:24.558Z,2.20
2018-03-08T00:58:27.143Z,2.10
2018-03-08T00:59:29.854Z,2.10
2018-03-08T01:00:32.898Z,2.10
2018-03-08T01:01:35.376Z,2.10
2018-03-08T01:02:37.896Z,2.00
2018-03-08T01:03:40.469Z,2.10
2018-03-08T01:04:42.998Z,2.10
2018-03-08T01:05:45.558Z,2.10
2018-03-08T01:06:48.041Z,2.00
2018-03-08T01:07:50.501Z,2.00
2018-03-08T01:08:52.994Z,2.00
2018-03-08T01:09:55.489Z,2.00
2018-03-08T01:10:58.720Z,2.00
2018-03-08T01:12:01.200Z,2.00
2018-03-08T01:13:03.771Z,2.00
2018-03-08T01:14:06.331Z,2.00
2018-03-08T01:15:09.591Z,1.90
2018-03-08T01:16:12.053Z,1.90
2018-03-08T01:17:14.527Z,1.90
2018-03-08T01:18:17.024Z,2.00
2018-03-08T01:19:20.296Z,1.90
2018-03-08T01:20:22.954Z,1.90
2018-03-08T01:21:25.418Z,1.90
2018-03-08T01:22:27.903Z,1.90
2018-03-08T01:23:30.379Z,1.90
2018-03-08T01:24:33.616Z,1.80
2018-03-08T01:25:36.100Z,1.80
2018-03-08T01:26:38.598Z,1.80
2018-03-08T01:27:41.062Z,1.80
2018-03-08T01:28:43.739Z,1.80
2018-03-08T01:29:47.052Z,1.70
2018-03-08T01:30:49.664Z,1.70
2018-03-08T01:31:52.149Z,1.70
2018-03-08T01:32:54.629Z,1.70
2018-03-08T01:33:57.216Z,1.70
2018-03-08T01:34:59.768Z,1.70
2018-03-08T01:36:02.329Z,1.70
2018-03-08T01:37:04.882Z,1.70
2018-03-08T01:38:07.400Z,1.70
2018-03-08T01:39:09.927Z,1.70
2018-03-08T01:40:12.398Z,1.70
2018-03-08T01:41:14.964Z,1.70
2018-03-08T01:42:18.224Z,1.70
2018-03-08T01:43:20.692Z,1.70
2018-03-08T01:44:23.198Z,1.70
2018-03-08T01:45:25.688Z,1.70
2018-03-08T01:46:28.925Z,1.70
2018-03-08T01:47:32.172Z,1.70
2018-03-08T01:48:35.613Z,1.70
2018-03-08T01:49:38.868Z,1.70
2018-03-08T01:50:41.341Z,1.70
2018-03-08T01:51:55.719Z,1.70
2018-03-08T01:52:58.198Z,1.70
2018-03-08T01:54:01.458Z,1.80
2018-03-08T01:55:03.913Z,1.80
2018-03-08T01:56:06.376Z,1.80
2018-03-08T01:57:09.657Z,1.80
2018-03-08T01:58:12.119Z,1.80
2018-03-08T01:59:14.600Z,1.80
2018-03-08T02:00:17.104Z,1.80
2018-03-08T02:01:20.378Z,1.70
2018-03-08T02:02:22.869Z,1.70
2018-03-08T02:03:26.116Z,1.70
2018-03-08T02:04:28.921Z,1.70
2018-03-08T02:05:31.434Z,1.80
2018-03-08T02:06:33.937Z,1.80
2018-03-08T02:07:36.452Z,1.70
2018-03-08T02:08:39.478Z,1.80
2018-03-08T02:09:41.960Z,1.70
2018-03-08T02:10:45.046Z,1.70
2018-03-08T02:11:47.563Z,1.70
2018-03-08T02:12:50.789Z,1.70
2018-03-08T02:13:54.076Z,1.70
2018-03-08T02:14:56.550Z,1.70
2018-03-08T02:15:59.105Z,1.70
2018-03-08T02:17:01.605Z,1.70
2018-03-08T02:18:04.173Z,1.70
2018-03-08T02:19:06.717Z,1.60
2018-03-08T02:20:09.194Z,1.60
2018-03-08T02:21:12.435Z,1.60
2018-03-08T02:22:15.675Z,1.60
2018-03-08T02:23:18.942Z,1.60
2018-03-08T02:24:21.430Z,1.60
2018-03-08T02:25:23.881Z,1.60
2018-03-08T02:26:28.041Z,1.60
2018-03-08T02:27:31.285Z,1.60
2018-03-08T02:28:33.790Z,1.60
2018-03-08T02:29:37.156Z,1.60
2018-03-08T02:30:39.684Z,1.60
2018-03-08T02:31:42.144Z,1.60
2018-03-08T02:32:44.643Z,1.60
2018-03-08T02:33:47.123Z,1.60
2018-03-08T02:34:49.596Z,1.60
2018-03-08T02:35:52.094Z,1.70
2018-03-08T02:36:55.317Z,1.60
2018-03-08T02:37:57.795Z,1.60
2018-03-08T02:39:00.284Z,1.60
2018-03-08T02:40:03.662Z,1.60
2018-03-08T02:41:07.206Z,1.60
2018-03-08T02:42:09.715Z,1.60
2018-03-08T02:43:12.349Z,1.60
2018-03-08T02:44:16.168Z,1.60
2018-03-08T02:45:18.654Z,1.70
2018-03-08T02:46:21.249Z,1.60
2018-03-08T02:47:24.508Z,1.60
2018-03-08T02:48:26.991Z,1.60
2018-03-08T02:49:29.487Z,1.60
2018-03-08T02:50:31.982Z,1.60
2018-03-08T02:51:34.570Z,1.60
2018-03-08T02:52:37.098Z,1.60
2018-03-08T02:53:39.600Z,1.60
2018-03-08T02:54:42.095Z,1.50
2018-03-08T02:55:45.035Z,1.60
2018-03-08T02:56:47.502Z,1.60
2018-03-08T02:57:50.170Z,1.60
2018-03-08T02:58:52.823Z,1.60
2018-03-08T02:59:55.318Z,1.60
2018-03-08T03:00:58.596Z,1.60
2018-03-08T03:02:01.070Z,1.60
2018-03-08T03:03:03.627Z,1.60
2018-03-08T03:04:06.139Z,1.60
2018-03-08T03:05:09.357Z,1.60
2018-03-08T03:06:13.089Z,1.60
2018-03-08T03:07:15.571Z,1.60
2018-03-08T03:08:18.251Z,1.60
2018-03-08T03:09:20.725Z,1.50
2018-03-08T03:10:23.215Z,1.50
2018-03-08T03:11:25.771Z,1.50
2018-03-08T03:12:28.251Z,1.40
2018-03-08T03:13:31.505Z,1.40
2018-03-08T03:14:33.954Z,1.40
2018-03-08T03:15:37.194Z,1.40
2018-03-08T03:16:40.428Z,1.50
2018-03-08T03:17:43.645Z,1.50
2018-03-08T03:18:46.156Z,1.50
2018-03-08T03:19:48.647Z,1.50
2018-03-08T03:20:51.176Z,1.50
2018-03-08T03:21:53.705Z,1.50
2018-03-08T03:22:56.178Z,1.50
2018-03-08T03:23:58.765Z,1.50
2018-03-08T03:25:01.229Z,1.50
2018-03-08T03:26:03.741Z,1.50
2018-03-08T03:27:06.218Z,1.50
2018-03-08T03:28:08.711Z,1.50
2018-03-08T03:29:11.174Z,1.40
2018-03-08T03:30:13.655Z,1.50
2018-03-08T03:31:16.171Z,1.50
2018-03-08T03:32:19.352Z,1.50
2018-03-08T03:33:22.611Z,1.50
2018-03-08T03:34:25.183Z,1.50
2018-03-08T03:35:27.634Z,1.50
2018-03-08T03:36:30.880Z,1.60
2018-03-08T03:37:34.128Z,1.60
2018-03-08T03:38:37.481Z,1.60
2018-03-08T03:39:39.959Z,1.60
2018-03-08T03:40:42.547Z,1.60
2018-03-08T03:41:45.037Z,1.60
2018-03-08T03:42:48.309Z,1.60
2018-03-08T03:43:50.776Z,1.60
2018-03-08T03:44:53.310Z,1.60
2018-03-08T03:45:55.783Z,1.50
2018-03-08T03:46:58.330Z,1.50
2018-03-08T03:48:00.836Z,1.50
2018-03-08T03:49:03.424Z,1.50
2018-03-08T03:50:06.695Z,1.50
2018-03-08T03:51:09.949Z,1.50
2018-03-08T03:52:12.466Z,1.50
2018-03-08T03:53:14.983Z,1.50
2018-03-08T03:54:18.220Z,1.50
2018-03-08T03:55:21.444Z,1.60
2018-03-08T03:56:24.720Z,1.60
2018-03-08T03:57:27.178Z,1.60
2018-03-08T03:58:29.645Z,1.60
2018-03-08T03:59:32.883Z,1.60
2018-03-08T04:00:35.425Z,1.60
2018-03-08T04:01:38.689Z,1.60
2018-03-08T04:02:41.165Z,1.60
2018-03-08T04:03:43.635Z,1.60
2018-03-08T04:04:46.124Z,1.60
2018-03-08T04:05:48.675Z,1.60
2018-03-08T04:06:51.946Z,1.60
2018-03-08T04:07:54.587Z,1.60
2018-03-08T04:10:06.183Z,1.60
2018-03-08T04:11:08.682Z,1.60
2018-03-08T04:12:11.173Z,1.60
2018-03-08T04:13:13.634Z,1.60
2018-03-08T04:14:16.114Z,1.60
2018-03-08T04:15:18.569Z,1.60
2018-03-08T04:16:21.914Z,1.60
2018-03-08T04:17:25.180Z,1.60
2018-03-08T04:18:28.120Z,1.50
2018-03-08T04:19:30.580Z,1.50
2018-03-08T04:20:33.039Z,1.50
2018-03-08T04:21:36.395Z,1.50
2018-03-08T04:22:39.636Z,1.50
2018-03-08T04:23:42.125Z,1.50
2018-03-08T04:24:44.615Z,1.50
2018-03-08T04:25:47.092Z,1.50
2018-03-08T04:26:50.335Z,1.50
2018-03-08T04:27:53.575Z,1.50
2018-03-08T04:28:56.816Z,1.50
2018-03-08T04:30:00.087Z,1.50
2018-03-08T04:31:04.346Z,1.50
2018-03-08T04:32:06.927Z,1.50
2018-03-08T04:33:09.417Z,1.50
2018-03-08T04:34:11.886Z,1.50
2018-03-08T04:35:14.345Z,1.50
2018-03-08T04:36:17.581Z,1.50
2018-03-08T04:37:21.566Z,1.50
2018-03-08T04:38:24.073Z,1.50
2018-03-08T04:39:26.600Z,1.50
2018-03-08T04:40:29.082Z,1.50
2018-03-08T04:41:31.557Z,1.50
2018-03-08T04:42:34.713Z,1.50
2018-03-08T04:43:37.190Z,1.50
2018-03-08T04:44:40.426Z,1.60
2018-03-08T04:45:42.878Z,1.60
2018-03-08T04:46:45.377Z,1.60
2018-03-08T04:47:47.828Z,1.60
2018-03-08T04:48:50.297Z,1.60
2018-03-08T04:49:52.884Z,1.60
2018-03-08T04:50:56.038Z,1.60
2018-03-08T04:51:58.569Z,1.60
2018-03-08T04:53:01.030Z,1.70
2018-03-08T04:54:03.493Z,1.70
2018-03-08T04:55:05.969Z,1.70
2018-03-08T04:56:08.436Z,1.70
2018-03-08T04:57:10.926Z,1.70
2018-03-08T04:58:14.159Z,1.70
2018-03-08T04:59:16.636Z,1.70
2018-03-08T05:00:19.130Z,1.70
2018-03-08T05:01:21.598Z,1.70
2018-03-08T05:02:25.885Z,1.70
2018-03-08T05:03:28.357Z,1.70
2018-03-08T05:04:31.598Z,1.80
2018-03-08T05:05:34.311Z,1.80
2018-03-08T05:06:36.778Z,1.80
2018-03-08T05:07:39.355Z,1.80
2018-03-08T05:08:42.931Z,1.90
2018-03-08T05:09:46.164Z,1.90
2018-03-08T05:10:48.731Z,1.90
2018-03-08T05:11:51.199Z,1.90
2018-03-08T05:12:53.657Z,1.90
2018-03-08T05:13:56.897Z,1.90
2018-03-08T05:15:00.135Z,2.00
2018-03-08T05:16:03.376Z,2.00
2018-03-08T05:17:06.594Z,2.00
2018-03-08T05:18:09.840Z,2.00
2018-03-08T05:19:12.305Z,2.00
2018-03-08T05:20:14.797Z,2.00
2018-03-08T05:21:17.289Z,2.00
2018-03-08T05:22:19.755Z,2.00
2018-03-08T05:23:22.220Z,2.00
2018-03-08T05:24:24.695Z,2.00
2018-03-08T05:25:27.158Z,2.00
2018-03-08T05:26:29.637Z,2.00
2018-03-08T05:27:32.108Z,2.00
2018-03-08T05:28:34.607Z,2.00
2018-03-08T05:29:37.854Z,2.00
2018-03-08T05:30:41.129Z,2.00
2018-03-08T05:31:43.587Z,2.00
2018-03-08T05:32:46.057Z,2.00
2018-03-08T05:33:49.312Z,2.00
2018-03-08T05:34:51.812Z,2.00
2018-03-08T05:35:55.087Z,2.00
2018-03-08T05:36:57.559Z,2.00
2018-03-08T05:38:00.016Z,2.00
2018-03-08T05:39:03.270Z,2.10
2018-03-08T05:40:05.790Z,2.00
2018-03-08T05:41:09.042Z,2.10
2018-03-08T05:42:11.513Z,2.10
2018-03-08T05:43:14.082Z,2.10
2018-03-08T05:44:16.569Z,2.10
2018-03-08T05:45:19.049Z,2.20
2018-03-08T05:46:21.521Z,2.20
2018-03-08T05:47:25.580Z,2.20
2018-03-08T05:48:28.070Z,2.20
2018-03-08T05:49:30.532Z,2.30
2018-03-08T05:50:33.124Z,2.30
2018-03-08T05:51:35.680Z,2.30
2018-03-08T05:52:38.180Z,2.30
2018-03-08T05:53:40.653Z,2.30
2018-03-08T05:54:43.930Z,2.30
2018-03-08T05:55:46.411Z,2.30
2018-03-08T05:56:49.714Z,2.40
2018-03-08T05:57:52.220Z,2.40
2018-03-08T05:58:54.727Z,2.40
2018-03-08T05:59:57.978Z,2.40
2018-03-08T06:01:01.212Z,2.40
2018-03-08T06:02:04.536Z,2.40
2018-03-08T06:03:07.058Z,2.40
2018-03-08T06:04:09.634Z,2.40
2018-03-08T06:05:12.459Z,2.40
2018-03-08T06:06:14.987Z,2.40
2018-03-08T06:07:17.526Z,2.40
2018-03-08T06:08:20.732Z,2.40
2018-03-08T06:09:23.998Z,2.40
2018-03-08T06:10:26.524Z,2.40
2018-03-08T06:11:29.031Z,2.40
2018-03-08T06:12:32.348Z,2.50
2018-03-08T06:13:34.831Z,2.40
2018-03-08T06:14:37.344Z,2.50
2018-03-08T06:15:39.838Z,2.50
2018-03-08T06:16:42.315Z,2.50
2018-03-08T06:17:44.778Z,2.50
2018-03-08T06:18:48.775Z,2.60
2018-03-08T06:19:51.276Z,2.50
2018-03-08T06:20:54.541Z,2.60
2018-03-08T06:21:57.022Z,2.60
2018-03-08T06:22:59.593Z,2.60
2018-03-08T06:24:02.094Z,2.60
2018-03-08T06:25:05.345Z,2.60
2018-03-08T06:26:08.614Z,2.50
2018-03-08T06:27:11.104Z,2.50
2018-03-08T06:28:13.559Z,2.60
2018-03-08T06:29:18.429Z,2.60
2018-03-08T06:30:20.912Z,2.60
2018-03-08T06:31:23.376Z,2.60
2018-03-08T06:32:26.723Z,2.70
2018-03-08T06:33:29.950Z,2.70
2018-03-08T06:34:33.319Z,2.70
2018-03-08T06:35:35.846Z,2.70
2018-03-08T06:36:38.359Z,2.70
2018-03-08T06:37:40.867Z,2.70
2018-03-08T06:38:44.105Z,2.70
2018-03-08T06:39:47.343Z,2.70
2018-03-08T06:40:49.949Z,2.70
2018-03-08T06:41:52.397Z,2.70
2018-03-08T06:42:54.947Z,2.80
2018-03-08T06:43:58.199Z,2.80
2018-03-08T06:45:00.698Z,2.80
2018-03-08T06:46:03.942Z,2.90
2018-03-08T06:47:07.242Z,2.90
2018-03-08T06:48:09.732Z,2.90
2018-03-08T06:49:12.257Z,2.90
2018-03-08T06:50:14.782Z,3.00
2018-03-08T06:51:17.288Z,3.00
2018-03-08T06:52:20.529Z,3.00
2018-03-08T06:53:23.763Z,3.00
2018-03-08T06:54:26.235Z,3.00
2018-03-08T06:55:28.704Z,3.10
2018-03-08T06:56:31.268Z,3.10
2018-03-08T06:57:33.731Z,3.10
2018-03-08T06:58:36.222Z,3.10
2018-03-08T06:59:38.708Z,3.20
2018-03-08T07:00:41.173Z,3.20
2018-03-08T07:01:43.689Z,3.20
2018-03-08T07:02:46.186Z,3.20
2018-03-08T07:03:48.666Z,3.30
2018-03-08T07:04:51.143Z,3.30
2018-03-08T07:05:54.364Z,3.20
2018-03-08T07:06:56.934Z,3.20
2018-03-08T07:07:59.451Z,3.20
2018-03-08T07:09:02.716Z,3.30
2018-03-08T07:10:05.181Z,3.30
2018-03-08T07:11:08.723Z,3.30
2018-03-08T07:12:11.201Z,3.30
2018-03-08T07:13:14.489Z,3.30
2018-03-08T07:14:16.974Z,3.30
2018-03-08T07:15:19.503Z,3.30
2018-03-08T07:16:21.998Z,3.30
2018-03-08T07:17:24.471Z,3.30
2018-03-08T07:18:27.576Z,3.30
2018-03-08T07:19:30.832Z,3.40
2018-03-08T07:20:33.282Z,3.40
2018-03-08T07:21:35.856Z,3.40
2018-03-08T07:22:39.162Z,3.50
2018-03-08T07:23:41.656Z,3.50
2018-03-08T07:24:44.131Z,3.50
2018-03-08T07:25:46.704Z,3.50
2018-03-08T07:26:49.674Z,3.60
2018-03-08T07:27:52.188Z,3.60
2018-03-08T07:28:54.667Z,3.60
2018-03-08T07:29:57.935Z,3.70
2018-03-08T07:31:00.407Z,3.70
2018-03-08T07:32:02.887Z,3.70
2018-03-08T07:33:05.377Z,3.70
2018-03-08T07:34:07.859Z,3.70
2018-03-08T07:35:10.369Z,3.80
2018-03-08T07:36:13.554Z,3.80
2018-03-08T07:37:16.028Z,3.80
2018-03-08T07:38:18.534Z,3.90
2018-03-08T07:39:21.776Z,3.90
2018-03-08T07:40:25.039Z,4.00
2018-03-08T07:41:27.532Z,4.00
2018-03-08T07:42:30.770Z,4.00
2018-03-08T07:43:33.223Z,4.00
2018-03-08T07:44:35.679Z,4.00
2018-03-08T07:45:38.125Z,4.00
2018-03-08T07:46:40.616Z,4.00
2018-03-08T07:47:43.084Z,4.00
2018-03-08T07:48:45.662Z,4.10
2018-03-08T07:49:48.217Z,4.10
2018-03-08T07:50:50.698Z,4.10
2018-03-08T07:51:53.185Z,4.10
2018-03-08T07:52:55.763Z,4.10
2018-03-08T07:53:58.232Z,4.20
2018-03-08T07:55:00.703Z,4.20
2018-03-08T07:56:03.196Z,4.20
2018-03-08T07:57:05.691Z,4.20
2018-03-08T07:58:08.166Z,4.20
2018-03-08T07:59:11.389Z,4.20
2018-03-08T08:00:14.344Z,4.20
2018-03-08T08:01:17.584Z,4.20
2018-03-08T08:02:20.843Z,4.30
2018-03-08T08:03:23.717Z,4.20
2018-03-08T08:04:37.918Z,4.30
2018-03-08T08:05:52.443Z,4.30
2018-03-08T08:07:07.715Z,4.40
2018-03-08T08:08:22.095Z,4.30
2018-03-08T08:09:24.574Z,4.30
2018-03-08T08:10:27.046Z,4.30
2018-03-08T08:11:29.556Z,4.40
2018-03-08T08:12:32.029Z,4.40
2018-03-08T08:13:34.555Z,4.40
2018-03-08T08:14:37.018Z,4.40
2018-03-08T08:15:40.322Z,4.40
2018-03-08T08:16:42.783Z,4.40
2018-03-08T08:17:46.017Z,4.40
2018-03-08T08:18:49.392Z,4.40
2018-03-08T08:19:51.904Z,4.40
2018-03-08T08:20:55.160Z,4.40
2018-03-08T08:21:58.425Z,4.40
2018-03-08T08:23:00.928Z,4.40
2018-03-08T08:24:03.377Z,4.40
2018-03-08T08:25:05.896Z,4.40
2018-03-08T08:26:08.407Z,4.40
2018-03-08T08:27:10.911Z,4.40
2018-03-08T08:28:14.175Z,4.40
2018-03-08T08:29:16.679Z,4.40
2018-03-08T08:30:19.938Z,4.50
2018-03-08T08:31:22.457Z,4.50
2018-03-08T08:32:24.969Z,4.50
2018-03-08T08:33:28.236Z,4.50
2018-03-08T08:34:30.735Z,4.50
2018-03-08T08:35:34.015Z,4.60
2018-03-08T08:36:36.497Z,4.50
2018-03-08T08:37:39.718Z,4.60
2018-03-08T08:38:42.204Z,4.60
2018-03-08T08:39:44.698Z,4.60
2018-03-08T08:40:47.176Z,4.60
2018-03-08T08:41:49.655Z,4.60
2018-03-08T08:42:52.176Z,4.60
2018-03-08T08:43:55.425Z,4.60
2018-03-08T08:44:57.975Z,4.60
2018-03-08T08:46:00.564Z,4.60
2018-03-08T08:47:03.023Z,4.60
2018-03-08T08:48:05.777Z,4.60
2018-03-08T08:49:08.257Z,4.60
2018-03-08T08:50:10.762Z,4.50
2018-03-08T08:51:13.282Z,4.50
2018-03-08T08:52:15.832Z,4.50
2018-03-08T08:53:19.085Z,4.50
2018-03-08T08:54:21.631Z,4.50
2018-03-08T08:55:24.163Z,4.50
2018-03-08T08:56:27.414Z,4.50
2018-03-08T08:57:29.880Z,4.50
2018-03-08T08:58:33.127Z,4.50
2018-03-08T08:59:36.380Z,4.50
2018-03-08T09:00:39.876Z,4.50
2018-03-08T09:01:42.333Z,4.50
2018-03-08T09:02:44.798Z,4.50
2018-03-08T09:03:47.367Z,4.50
2018-03-08T09:04:49.835Z,4.50
2018-03-08T09:05:52.320Z,4.50
2018-03-08T09:06:54.794Z,4.50
2018-03-08T09:07:57.262Z,4.50
2018-03-08T09:08:59.743Z,4.50
2018-03-08T09:10:02.261Z,4.50
2018-03-08T09:11:04.795Z,4.50
2018-03-08T09:12:07.258Z,4.50
2018-03-08T09:13:09.736Z,4.50
2018-03-08T09:14:12.210Z,4.60
2018-03-08T09:15:14.748Z,4.60
2018-03-08T09:16:17.211Z,4.60
2018-03-08T09:17:20.431Z,4.60
2018-03-08T09:18:23.667Z,4.60
2018-03-08T09:19:26.130Z,4.60
2018-03-08T09:20:28.620Z,4.70
2018-03-08T09:21:31.185Z,4.60
2018-03-08T09:22:33.684Z,4.60
2018-03-08T09:23:36.906Z,4.60
2018-03-08T09:24:39.351Z,4.60
2018-03-08T09:25:42.589Z,4.60
2018-03-08T09:26:45.835Z,4.60
2018-03-08T09:27:49.107Z,4.60
2018-03-08T09:28:51.586Z,4.60
2018-03-08T09:29:54.134Z,4.60
2018-03-08T09:30:57.342Z,4.60
2018-03-08T09:31:59.872Z,4.60
2018-03-08T09:33:02.415Z,4.50
2018-03-08T09:34:04.925Z,4.60
2018-03-08T09:35:07.416Z,4.50
2018-03-08T09:36:10.016Z,4.50
2018-03-08T09:37:12.538Z,4.50
2018-03-08T09:38:15.849Z,4.50
2018-03-08T09:39:18.575Z,4.50
2018-03-08T09:40:21.099Z,4.50
2018-03-08T09:41:23.601Z,4.50
2018-03-08T09:42:26.085Z,4.40
2018-03-08T09:43:28.638Z,4.40
2018-03-08T09:44:31.167Z,4.40
2018-03-08T09:45:33.650Z,4.40
2018-03-08T09:46:36.885Z,4.40
2018-03-08T09:47:40.190Z,4.40
2018-03-08T09:48:42.689Z,4.40
2018-03-08T09:49:45.162Z,4.40
2018-03-08T09:50:48.473Z,4.40
2018-03-08T09:51:51.031Z,4.40
2018-03-08T09:52:53.537Z,4.30
2018-03-08T09:53:56.046Z,4.30
2018-03-08T09:54:59.808Z,4.30
2018-03-08T09:56:02.301Z,4.20
2018-03-08T09:57:05.613Z,4.20
2018-03-08T09:58:08.089Z,4.20
2018-03-08T09:59:10.793Z,4.20
2018-03-08T10:00:14.041Z,4.20
2018-03-08T10:01:16.534Z,4.20
2018-03-08T10:02:19.829Z,4.20
2018-03-08T10:03:22.347Z,4.20
2018-03-08T10:04:24.881Z,4.20
2018-03-08T10:05:27.419Z,4.20
2018-03-08T10:06:29.934Z,4.20
2018-03-08T10:07:32.465Z,4.10
2018-03-08T10:08:34.951Z,4.10
2018-03-08T10:09:37.472Z,4.10
2018-03-08T10:10:40.705Z,4.00
2018-03-08T10:11:43.222Z,4.00
2018-03-08T10:12:45.741Z,4.00
2018-03-08T10:13:48.211Z,4.00
2018-03-08T10:14:50.719Z,4.00
2018-03-08T10:15:53.964Z,4.00
2018-03-08T10:16:57.213Z,4.00
2018-03-08T10:18:00.493Z,4.00
2018-03-08T10:19:03.502Z,4.00
2018-03-08T10:20:06.013Z,4.00
2018-03-08T10:21:09.282Z,4.00
2018-03-08T10:22:11.757Z,4.00
2018-03-08T10:23:15.726Z,4.00
2018-03-08T10:24:18.226Z,4.00
2018-03-08T10:25:20.793Z,4.00
2018-03-08T10:26:24.088Z,4.00
2018-03-08T10:27:26.562Z,4.00
2018-03-08T10:28:29.795Z,4.00
2018-03-08T10:29:33.206Z,4.00
2018-03-08T10:30:36.452Z,4.10
2018-03-08T10:31:38.961Z,4.00
2018-03-08T10:32:41.460Z,4.10
2018-03-08T10:33:43.938Z,4.10
2018-03-08T10:34:46.429Z,4.10
2018-03-08T10:35:48.950Z,4.10
2018-03-08T10:36:51.422Z,4.10
2018-03-08T10:37:53.910Z,4.10
2018-03-08T10:38:56.413Z,4.10
2018-03-08T10:39:58.942Z,4.10
2018-03-08T10:41:01.492Z,4.20
2018-03-08T10:42:04.726Z,4.20
2018-03-08T10:43:07.282Z,4.20
2018-03-08T10:44:09.745Z,4.20
2018-03-08T10:45:13.003Z,4.20
2018-03-08T10:46:15.515Z,4.20
2018-03-08T10:47:18.763Z,4.10
2018-03-08T10:48:21.265Z,4.20
2018-03-08T10:49:23.819Z,4.20
2018-03-08T10:50:26.371Z,4.20
2018-03-08T10:51:29.575Z,4.20
2018-03-08T10:52:32.817Z,4.20
2018-03-08T10:53:35.315Z,4.20
2018-03-08T10:54:37.807Z,4.20
2018-03-08T10:55:40.319Z,4.20
2018-03-08T10:56:42.788Z,4.30
2018-03-08T10:57:45.252Z,4.30
2018-03-08T10:58:47.730Z,4.40
2018-03-08T10:59:50.297Z,4.50
2018-03-08T11:00:55.469Z,4.50
2018-03-08T11:02:02.708Z,4.50
2018-03-08T11:03:06.926Z,4.50
2018-03-08T11:04:14.246Z,4.40
2018-03-08T11:05:16.739Z,4.40
2018-03-08T11:06:20.885Z,4.50
2018-03-08T11:07:23.363Z,4.40
2018-03-08T11:08:25.837Z,4.50
2018-03-08T11:09:29.089Z,4.50
2018-03-08T11:10:32.315Z,4.50
2018-03-08T11:11:34.782Z,4.50
2018-03-08T11:12:37.666Z,4.50
2018-03-08T11:13:40.688Z,4.60
2018-03-08T11:14:43.161Z,4.70
2018-03-08T11:15:46.410Z,4.80
2018-03-08T11:16:49.620Z,4.80
2018-03-08T11:17:52.186Z,4.80
2018-03-08T11:18:54.695Z,4.80
2018-03-08T11:19:57.484Z,4.90
2018-03-08T11:20:59.979Z,4.90
2018-03-08T11:22:02.443Z,4.90
2018-03-08T11:23:05.603Z,4.90
2018-03-08T11:24:08.926Z,4.90
2018-03-08T11:25:11.466Z,4.90
2018-03-08T11:26:13.957Z,4.90
2018-03-08T11:27:16.425Z,5.00
2018-03-08T11:28:18.870Z,5.00
2018-03-08T11:29:21.339Z,5.10
2018-03-08T11:30:23.838Z,5.10
2018-03-08T11:31:27.074Z,5.10
2018-03-08T11:32:29.540Z,5.00
2018-03-08T11:33:32.008Z,5.10
2018-03-08T11:34:34.941Z,5.00
2018-03-08T11:35:38.194Z,5.10
2018-03-08T11:36:40.986Z,5.10
2018-03-08T11:37:43.468Z,5.10
2018-03-08T11:38:45.984Z,5.10
2018-03-08T11:39:48.477Z,5.10
2018-03-08T11:40:51.718Z,5.20
2018-03-08T11:41:54.981Z,5.20
2018-03-08T11:42:58.636Z,5.20
2018-03-08T11:44:01.369Z,5.30
2018-03-08T11:45:03.891Z,5.30
2018-03-08T11:46:06.646Z,5.40
2018-03-08T11:47:09.692Z,5.50
2018-03-08T11:48:12.262Z,5.50
2018-03-08T11:49:16.500Z,5.60
2018-03-08T11:50:19.174Z,5.70
2018-03-08T11:51:22.396Z,5.90
2018-03-08T11:52:25.668Z,5.90
2018-03-08T11:53:28.968Z,5.90
2018-03-08T11:54:31.544Z,5.90
2018-03-08T11:55:34.188Z,5.90
2018-03-08T11:56:36.684Z,6.00
2018-03-08T11:57:39.963Z,6.00
2018-03-08T11:58:42.599Z,6.00
2018-03-08T11:59:45.090Z,6.00
2018-03-08T12:00:47.594Z,5.90
2018-03-08T12:01:50.932Z,5.80
2018-03-08T12:02:54.144Z,5.90
2018-03-08T12:03:56.894Z,5.80
2018-03-08T12:04:59.365Z,5.90
2018-03-08T12:06:01.897Z,5.90
2018-03-08T12:07:04.397Z,5.90
2018-03-08T12:08:07.753Z,5.80
2018-03-08T12:09:10.283Z,5.80
2018-03-08T12:10:12.763Z,5.80
2018-03-08T12:11:15.233Z,5.90
2018-03-08T12:12:17.702Z,5.90
2018-03-08T12:13:20.178Z,6.00
2018-03-08T12:14:22.669Z,6.20
2018-03-08T12:15:25.173Z,6.30
2018-03-08T12:16:27.699Z,6.40
2018-03-08T12:17:30.211Z,6.50
2018-03-08T12:18:32.679Z,6.60
2018-03-08T12:19:35.945Z,6.70
2018-03-08T12:20:39.164Z,6.70
2018-03-08T12:21:42.422Z,6.80
2018-03-08T12:22:44.949Z,6.80
2018-03-08T12:23:47.478Z,6.90
2018-03-08T12:24:50.003Z,7.00
2018-03-08T12:25:52.430Z,7.00
2018-03-08T12:26:55.644Z,7.30
2018-03-08T12:27:58.161Z,7.30
2018-03-08T12:29:02.147Z,7.30
2018-03-08T12:30:05.381Z,7.30
2018-03-08T12:31:08.648Z,7.30
2018-03-08T12:32:11.141Z,7.30
2018-03-08T12:33:13.650Z,7.40
2018-03-08T12:34:16.134Z,7.50
2018-03-08T12:35:18.606Z,7.50
2018-03-08T12:36:21.120Z,7.60
2018-03-08T12:37:23.589Z,7.60
2018-03-08T12:38:26.116Z,7.60
2018-03-08T12:39:28.644Z,7.60
2018-03-08T12:40:31.328Z,7.60
2018-03-08T12:41:33.822Z,7.60
2018-03-08T12:42:36.358Z,7.60
2018-03-08T12:43:38.874Z,7.60
2018-03-08T12:44:41.400Z,7.70
2018-03-08T12:45:43.858Z,7.70
2018-03-08T12:46:46.323Z,7.70
2018-03-08T12:47:49.175Z,7.80
2018-03-08T12:48:51.710Z,7.80
2018-03-08T12:49:55.453Z,7.90
2018-03-08T12:50:57.973Z,7.80
2018-03-08T12:52:00.482Z,7.90
2018-03-08T12:53:03.413Z,7.90
2018-03-08T12:54:06.641Z,7.80
2018-03-08T12:55:09.934Z,7.90
2018-03-08T12:56:12.424Z,7.80
2018-03-08T12:57:15.746Z,7.90
2018-03-08T12:58:18.263Z,7.90
2018-03-08T12:59:20.958Z,7.90
2018-03-08T13:00:23.460Z,7.90
2018-03-08T13:01:25.927Z,7.90
2018-03-08T13:02:28.381Z,7.90
2018-03-08T13:03:31.602Z,7.90
2018-03-08T13:04:34.190Z,7.90
2018-03-08T13:05:36.787Z,7.90
2018-03-08T13:06:40.060Z,7.80
2018-03-08T13:07:42.546Z,7.80
2018-03-08T13:08:45.019Z,7.70
2018-03-08T13:09:47.522Z,7.60
2018-03-08T13:10:50.169Z,7.60
2018-03-08T13:11:52.640Z,7.60
2018-03-08T13:12:55.095Z,7.60
2018-03-08T13:13:57.588Z,7.60
2018-03-08T13:15:00.059Z,7.60
2018-03-08T13:16:02.591Z,7.60
2018-03-08T13:17:05.113Z,7.60
2018-03-08T13:18:07.597Z,7.60
2018-03-08T13:19:10.062Z,7.60
2018-03-08T13:20:13.445Z,7.70
2018-03-08T13:21:15.951Z,7.70
2018-03-08T13:22:18.495Z,7.80
2018-03-08T13:23:20.990Z,7.80
2018-03-08T13:24:23.479Z,7.90
2018-03-08T13:25:26.743Z,7.90
2018-03-08T13:26:29.207Z,7.90
2018-03-08T13:27:31.693Z,8.00
2018-03-08T13:28:34.183Z,8.00
2018-03-08T13:29:41.552Z,8.00
2018-03-08T13:30:44.039Z,8.00
2018-03-08T13:31:46.590Z,8.10
2018-03-08T13:32:49.832Z,8.20
2018-03-08T13:33:53.081Z,8.30
2018-03-08T13:34:56.339Z,8.40
2018-03-08T13:35:58.871Z,8.40
2018-03-08T13:37:01.360Z,8.50
2018-03-08T13:39:03.777Z,8.50
2018-03-08T13:40:06.927Z,8.50
2018-03-08T13:41:09.407Z,8.50
2018-03-08T13:42:12.690Z,8.60
2018-03-08T13:43:15.159Z,8.60
2018-03-08T13:44:18.172Z,8.60
2018-03-08T13:45:20.668Z,8.60
2018-03-08T13:46:23.165Z,8.70
2018-03-08T13:47:25.706Z,8.70
2018-03-08T13:48:28.763Z,8.70
2018-03-08T13:49:37.265Z,8.70
2018-03-08T13:50:40.529Z,8.70
2018-03-08T13:51:43.327Z,8.70
2018-03-08T13:52:45.810Z,8.60
2018-03-08T13:53:49.057Z,8.60
2018-03-08T13:54:52.304Z,8.60
2018-03-08T13:55:54.832Z,8.60
2018-03-08T13:56:57.335Z,8.60
2018-03-08T13:57:59.898Z,8.70
2018-03-08T13:59:02.344Z,8.70
2018-03-08T14:00:04.948Z,8.80